createdAt,value
2019-04-06T00:00:33.960Z,8.00
2019-04-06T00:03:03.023Z,8.00
2019-04-06T00:05:32.706Z,8.10
2019-04-06T00:08:02.090Z,8.10
2019-04-06T00:10:31.341Z,8.20
2019-04-06T00:13:00.119Z,8.30
2019-04-06T00:15:29.143Z,8.30
2019-04-06T00:17:57.921Z,8.40
2019-04-06T00:20:27.168Z,8.40
2019-04-06T00:22:58.027Z,8.40
2019-04-06T00:25:27.069Z,8.50
2019-04-06T00:27:56.355Z,8.50
2019-04-06T00:30:25.413Z,8.50
2019-04-06T00:32:58.602Z,8.50
2019-04-06T00:35:27.658Z,8.50
2019-04-06T00:37:56.443Z,8.50
2019-04-06T00:40:25.807Z,8.50
2019-04-06T00:42:54.651Z,8.40
2019-04-06T00:45:23.766Z,8.40
2019-04-06T00:47:53.289Z,8.40
2019-04-06T00:50:22.026Z,8.40
2019-04-06T00:52:51.615Z,8.40
2019-04-06T00:55:20.525Z,8.30
2019-04-06T00:57:49.289Z,8.30
2019-04-06T01:00:18.654Z,8.30
2019-04-06T01:02:47.448Z,8.30
2019-04-06T01:05:16.278Z,8.30
2019-04-06T01:07:45.051Z,8.20
2019-04-06T01:10:14.447Z,8.20
2019-04-06T01:12:43.339Z,8.10
2019-04-06T01:15:12.885Z,8.10
2019-04-06T01:17:41.713Z,8.10
2019-04-06T01:20:10.674Z,8.10
2019-04-06T01:22:40.764Z,8.10
2019-04-06T01:25:09.686Z,8.10
2019-04-06T01:27:38.443Z,8.10
2019-04-06T01:30:09.370Z,8.00
2019-04-06T01:32:38.302Z,8.00
2019-04-06T01:35:07.311Z,8.00
2019-04-06T01:37:36.626Z,7.90
2019-04-06T01:40:06.381Z,7.90
2019-04-06T01:42:35.153Z,7.90
2019-04-06T01:45:04.162Z,8.00
2019-04-06T01:47:32.983Z,7.90
2019-04-06T01:50:01.737Z,8.00
2019-04-06T01:52:31.028Z,8.00
2019-04-06T01:55:00.509Z,8.00
2019-04-06T01:57:29.516Z,8.00
2019-04-06T01:59:58.935Z,7.90
2019-04-06T02:02:30.518Z,7.90
2019-04-06T02:04:59.541Z,8.00
2019-04-06T02:07:28.620Z,8.00
2019-04-06T02:09:57.737Z,8.10
2019-04-06T02:12:26.478Z,8.10
2019-04-06T02:14:55.709Z,8.20
2019-04-06T02:17:24.494Z,8.30
2019-04-06T02:19:53.478Z,8.30
2019-04-06T02:22:22.758Z,8.30
2019-04-06T02:24:51.575Z,8.30
2019-04-06T02:27:20.357Z,8.40
2019-04-06T02:30:08.519Z,8.40
2019-04-06T02:32:46.344Z,8.50
2019-04-06T02:35:37.243Z,8.50
2019-04-06T02:38:28.775Z,8.50
2019-04-06T02:41:09.049Z,8.50
2019-04-06T02:43:38.009Z,8.50
2019-04-06T02:46:07.327Z,8.50
2019-04-06T02:48:36.347Z,8.40
2019-04-06T02:51:05.246Z,8.50
2019-04-06T02:53:34.555Z,8.60
2019-04-06T02:56:04.110Z,8.60
2019-04-06T02:58:33.188Z,8.60
2019-04-06T03:01:02.286Z,8.60
2019-04-06T03:03:31.276Z,8.70
2019-04-06T03:06:11.184Z,8.70
2019-04-06T03:08:40.304Z,8.70
2019-04-06T03:11:09.202Z,8.70
2019-04-06T03:13:38.653Z,8.70
2019-04-06T03:16:08.635Z,8.70
2019-04-06T03:18:37.821Z,8.60
2019-04-06T03:21:07.098Z,8.60
2019-04-06T03:23:49.721Z,8.70
2019-04-06T03:26:07.984Z,8.70
2019-04-06T03:28:37.226Z,8.60
2019-04-06T03:31:06.384Z,8.60
2019-04-06T03:33:35.260Z,8.60
2019-04-06T03:36:04.668Z,8.60
2019-04-06T03:38:33.840Z,8.60
2019-04-06T03:41:03.085Z,8.60
2019-04-06T03:43:38.277Z,8.50
2019-04-06T03:46:07.131Z,8.50
2019-04-06T03:48:36.172Z,8.50
2019-04-06T03:51:05.718Z,8.40
2019-04-06T03:53:35.358Z,8.40
2019-04-06T03:56:04.400Z,8.40
2019-04-06T03:58:33.824Z,8.30
2019-04-06T04:01:03.002Z,8.30
2019-04-06T04:03:32.072Z,8.30
2019-04-06T04:06:02.677Z,8.40
2019-04-06T04:08:32.026Z,8.40
2019-04-06T04:11:00.823Z,8.50
2019-04-06T04:13:30.138Z,8.50
2019-04-06T04:15:59.754Z,8.50
2019-04-06T04:18:28.720Z,8.60
2019-04-06T04:20:57.518Z,8.60
2019-04-06T04:23:26.756Z,8.60
2019-04-06T04:25:55.778Z,8.60
2019-04-06T04:28:24.693Z,8.60
2019-04-06T04:30:53.874Z,8.50
2019-04-06T04:33:22.615Z,8.60
2019-04-06T04:35:52.508Z,8.40
2019-04-06T04:38:21.607Z,8.50
2019-04-06T04:40:50.378Z,8.50
2019-04-06T04:43:19.390Z,8.50
2019-04-06T04:45:48.821Z,8.50
2019-04-06T04:48:18.231Z,8.60
2019-04-06T04:50:47.864Z,8.60
2019-04-06T04:53:17.182Z,8.60
2019-04-06T04:55:46.417Z,8.70
2019-04-06T04:58:27.805Z,8.60
2019-04-06T05:00:57.306Z,8.60
2019-04-06T05:03:26.038Z,8.70
2019-04-06T05:05:55.322Z,8.70
2019-04-06T05:08:24.421Z,8.70
2019-04-06T05:10:53.240Z,8.70
2019-04-06T05:13:22.012Z,8.60
2019-04-06T05:16:22.130Z,8.60
2019-04-06T05:18:50.899Z,8.60
2019-04-06T05:21:20.009Z,8.60
2019-04-06T05:23:48.867Z,8.60
2019-04-06T05:26:17.732Z,8.60
2019-04-06T05:28:47.019Z,8.60
2019-04-06T05:31:15.778Z,8.60
2019-04-06T05:33:44.942Z,8.50
2019-04-06T05:36:14.290Z,8.60
2019-04-06T05:38:43.550Z,8.60
2019-04-06T05:41:13.176Z,8.60
2019-04-06T05:43:42.298Z,8.50
2019-04-06T05:46:11.561Z,8.60
2019-04-06T05:48:41.047Z,8.60
2019-04-06T05:51:10.063Z,8.60
2019-04-06T05:53:39.055Z,8.60
2019-04-06T05:56:07.913Z,8.60
2019-04-06T05:58:40.291Z,8.60
2019-04-06T06:01:10.188Z,8.70
2019-04-06T06:03:40.102Z,8.70
2019-04-06T06:06:08.845Z,8.80
2019-04-06T06:08:37.815Z,8.80
2019-04-06T06:11:07.139Z,8.80
2019-04-06T06:13:36.146Z,8.90
2019-04-06T06:16:05.312Z,8.90
2019-04-06T06:18:34.442Z,9.00
2019-04-06T06:21:03.477Z,9.00
2019-04-06T06:23:32.739Z,9.00
2019-04-06T06:26:02.015Z,9.10
2019-04-06T06:28:31.038Z,9.10
2019-04-06T06:31:00.114Z,9.10
2019-04-06T06:33:32.304Z,9.20
2019-04-06T06:36:01.397Z,9.10
2019-04-06T06:38:30.165Z,9.20
2019-04-06T06:40:58.967Z,9.30
2019-04-06T06:43:28.089Z,9.30
2019-04-06T06:45:57.127Z,9.30
2019-04-06T06:48:25.895Z,9.30
2019-04-06T06:50:54.910Z,9.30
2019-04-06T06:53:23.926Z,9.30
2019-04-06T06:55:55.418Z,9.30
2019-04-06T06:58:25.851Z,9.40
2019-04-06T07:00:55.267Z,9.50
2019-04-06T07:03:40.607Z,9.60
2019-04-06T07:06:09.618Z,9.60
2019-04-06T07:08:39.660Z,9.60
2019-04-06T07:11:08.763Z,9.60
2019-04-06T07:13:37.507Z,9.80
2019-04-06T07:16:08.319Z,9.80
2019-04-06T07:18:37.496Z,9.90
2019-04-06T07:21:06.318Z,9.90
2019-04-06T07:23:35.353Z,10.00
2019-04-06T07:26:04.541Z,10.00
2019-04-06T07:28:38.445Z,10.00
2019-04-06T07:31:04.660Z,10.00
2019-04-06T07:33:33.768Z,10.00
2019-04-06T07:36:02.835Z,10.00
2019-04-06T07:38:31.889Z,10.00
2019-04-06T07:41:02.256Z,10.00
2019-04-06T07:43:31.009Z,10.10
2019-04-06T07:46:00.036Z,10.20
2019-04-06T07:48:29.090Z,10.30
2019-04-06T07:50:58.296Z,10.40
2019-04-06T07:53:27.398Z,10.40
2019-04-06T07:55:56.727Z,10.50
2019-04-06T07:58:26.244Z,10.60
2019-04-06T08:00:55.263Z,10.70
2019-04-06T08:03:24.269Z,10.80
2019-04-06T08:05:53.357Z,10.90
2019-04-06T08:08:22.450Z,11.00
2019-04-06T08:10:51.442Z,11.00
2019-04-06T08:13:20.724Z,11.00
2019-04-06T08:15:49.884Z,11.00
2019-04-06T08:18:18.693Z,11.10
2019-04-06T08:20:47.480Z,11.30
2019-04-06T08:23:16.729Z,11.40
2019-04-06T08:25:45.753Z,11.50
2019-04-06T08:28:14.714Z,11.60
2019-04-06T08:30:46.053Z,11.70
2019-04-06T08:33:14.456Z,11.80
2019-04-06T08:35:43.747Z,11.90
2019-04-06T08:38:12.519Z,12.10
2019-04-06T08:40:41.529Z,12.30
2019-04-06T08:43:10.583Z,12.60
2019-04-06T08:45:39.851Z,12.80
2019-04-06T08:48:08.850Z,13.00
2019-04-06T08:50:38.131Z,13.00
2019-04-06T08:53:07.136Z,13.10
2019-04-06T08:55:36.200Z,13.30
2019-04-06T08:58:06.139Z,13.40
2019-04-06T09:00:34.869Z,13.60
2019-04-06T09:03:03.888Z,13.80
2019-04-06T09:05:33.339Z,13.90
2019-04-06T09:08:02.597Z,14.00
2019-04-06T09:10:31.365Z,14.20
2019-04-06T09:13:00.626Z,14.20
2019-04-06T09:15:29.626Z,14.40
2019-04-06T09:17:58.961Z,14.50
2019-04-06T09:20:28.063Z,14.60
2019-04-06T09:22:57.484Z,14.70
2019-04-06T09:25:26.507Z,14.60
2019-04-06T09:27:56.135Z,14.60
2019-04-06T09:30:24.934Z,14.60
2019-04-06T09:32:56.033Z,14.50
2019-04-06T09:35:24.875Z,14.30
2019-04-06T09:37:53.638Z,14.20
2019-04-06T09:40:22.678Z,14.10
2019-04-06T09:42:51.782Z,14.30
2019-04-06T09:45:41.571Z,14.40
2019-04-06T09:48:30.930Z,14.50
2019-04-06T09:51:28.154Z,14.70
2019-04-06T09:54:22.331Z,14.90
2019-04-06T09:57:10.410Z,14.90
2019-04-06T10:00:01.947Z,15.00
2019-04-06T10:02:56.585Z,15.10
2019-04-06T10:05:43.539Z,15.30
2019-04-06T10:08:32.083Z,15.60
2019-04-06T10:11:20.173Z,15.70
2019-04-06T10:14:03.069Z,15.80
2019-04-06T10:16:56.867Z,15.90
2019-04-06T10:19:39.789Z,16.10
2019-04-06T10:22:24.457Z,16.30
2019-04-06T10:25:11.291Z,16.40
2019-04-06T10:28:04.209Z,16.50
2019-04-06T10:30:43.452Z,16.60
2019-04-06T10:33:19.431Z,16.60
2019-04-06T10:36:27.049Z,16.70
2019-04-06T10:39:08.908Z,16.80
2019-04-06T10:42:00.054Z,16.80
2019-04-06T10:44:36.490Z,16.80
2019-04-06T10:47:19.454Z,16.70
2019-04-06T10:50:13.952Z,16.80
2019-04-06T10:53:02.566Z,16.90
2019-04-06T10:55:47.333Z,17.10
2019-04-06T10:58:36.046Z,17.40
2019-04-06T11:01:13.167Z,17.50
2019-04-06T11:04:01.077Z,17.50
2019-04-06T11:06:58.565Z,17.60
2019-04-06T11:09:46.679Z,17.80
2019-04-06T11:12:47.388Z,17.80
2019-04-06T11:15:39.015Z,18.00
2019-04-06T11:18:16.482Z,18.20
2019-04-06T11:21:03.054Z,18.20
2019-04-06T11:23:57.028Z,18.40
2019-04-06T11:26:44.858Z,18.80
2019-04-06T11:29:18.223Z,19.20
2019-04-06T11:32:12.642Z,19.40
2019-04-06T11:34:56.378Z,19.60
2019-04-06T11:37:47.120Z,19.60
2019-04-06T11:40:41.110Z,19.70
2019-04-06T11:43:22.334Z,19.90
2019-04-06T11:46:16.988Z,20.00
2019-04-06T11:49:08.098Z,20.00
2019-04-06T11:51:55.391Z,20.00
2019-04-06T11:54:43.242Z,20.30
2019-04-06T11:57:21.090Z,20.60
2019-04-06T12:00:09.461Z,21.00
2019-04-06T12:03:03.657Z,21.10
2019-04-06T12:05:44.824Z,21.40
2019-04-06T12:08:26.737Z,21.30
2019-04-06T12:11:18.435Z,21.50
2019-04-06T12:14:09.834Z,21.50
2019-04-06T12:17:00.873Z,21.70
2019-04-06T12:23:10.250Z,21.90
2019-04-06T12:25:58.292Z,22.10
2019-04-06T12:29:04.630Z,22.40
2019-04-06T12:31:51.519Z,22.40
2019-04-06T12:34:28.137Z,22.10
2019-04-06T12:37:16.235Z,21.80
2019-04-06T12:39:57.988Z,22.10
2019-04-06T12:42:38.598Z,22.40
2019-04-06T12:45:41.850Z,22.60
2019-04-06T12:48:28.546Z,22.90
2019-04-06T12:51:16.073Z,23.40
2019-04-06T12:54:00.363Z,23.30
2019-04-06T12:56:42.162Z,23.30
2019-04-06T12:59:28.747Z,23.20
2019-04-06T13:02:06.135Z,23.40
2019-04-06T13:04:51.150Z,23.70
2019-04-06T13:07:31.783Z,24.10
2019-04-06T13:10:25.647Z,24.30
2019-04-06T13:13:32.198Z,23.90
2019-04-06T13:16:07.874Z,23.90
2019-04-06T13:19:04.779Z,24.30
2019-04-06T13:21:42.482Z,24.50
2019-04-06T13:24:19.093Z,24.70
2019-04-06T13:27:00.921Z,24.60
2019-04-06T13:29:40.392Z,24.70
2019-04-06T13:32:27.394Z,25.00
2019-04-06T13:35:27.682Z,25.10
2019-04-06T13:38:15.816Z,25.40
2019-04-06T13:41:11.037Z,25.40
2019-04-06T13:43:46.124Z,25.40
2019-04-06T13:46:22.578Z,25.40
2019-04-06T13:49:03.608Z,25.20
2019-04-06T13:51:51.974Z,25.30
2019-04-06T13:54:47.531Z,25.20
2019-04-06T13:57:34.748Z,24.90
2019-04-06T14:00:23.387Z,24.80
2019-04-06T14:03:02.354Z,24.60
2019-04-06T14:05:46.274Z,24.80
2019-04-06T14:08:39.765Z,25.00
2019-04-06T14:11:33.764Z,25.50
2019-04-06T14:14:20.601Z,25.60
2019-04-06T14:17:00.185Z,25.70
2019-04-06T14:19:56.110Z,25.70
2019-04-06T14:22:38.626Z,25.70
2019-04-06T14:25:20.338Z,25.80
2019-04-06T14:27:59.173Z,25.90
2019-04-06T14:30:51.546Z,26.00
2019-04-06T14:33:36.146Z,26.00
2019-04-06T14:36:17.338Z,26.30
2019-04-06T14:39:00.427Z,26.10
2019-04-06T14:41:47.371Z,26.40
2019-04-06T14:44:26.486Z,26.40
2019-04-06T14:47:02.753Z,26.20
2019-04-06T14:50:03.340Z,26.00
2019-04-06T14:52:48.502Z,25.60
2019-04-06T14:55:29.518Z,25.10
2019-04-06T14:58:12.467Z,25.10
2019-04-06T15:00:52.410Z,25.10
2019-04-06T15:03:44.149Z,25.10
2019-04-06T15:06:41.581Z,25.30
2019-04-06T15:09:27.423Z,25.50
2019-04-06T15:12:23.810Z,25.40
2019-04-06T15:15:12.643Z,25.40
2019-04-06T15:17:55.311Z,25.90
2019-04-06T15:20:58.900Z,26.10
2019-04-06T15:23:53.089Z,26.30
2019-04-06T15:26:40.125Z,26.50
2019-04-06T15:29:17.462Z,26.10
2019-04-06T15:32:02.218Z,26.30
2019-04-06T15:34:50.890Z,26.30
2019-04-06T15:37:41.108Z,26.40
2019-04-06T15:40:48.145Z,26.40
2019-04-06T15:43:41.882Z,26.40
2019-04-06T15:46:32.995Z,26.30
2019-04-06T15:49:19.717Z,26.00
2019-04-06T15:52:21.578Z,25.50
2019-04-06T15:55:08.790Z,25.20
2019-04-06T15:57:45.338Z,25.30
2019-04-06T16:00:21.847Z,24.70
2019-04-06T16:03:07.918Z,24.60
2019-04-06T16:06:00.177Z,24.30
2019-04-06T16:08:54.235Z,24.10
2019-04-06T16:11:45.762Z,24.10
2019-04-06T16:14:23.135Z,24.50
2019-04-06T16:17:14.785Z,24.90
2019-04-06T16:20:06.491Z,24.80
2019-04-06T16:22:55.669Z,25.20
2019-04-06T16:25:34.315Z,25.60
2019-04-06T16:28:34.461Z,25.90
2019-04-06T16:31:26.368Z,26.00
2019-04-06T16:34:27.131Z,26.20
2019-04-06T16:37:15.057Z,26.20
2019-04-06T16:40:09.279Z,26.30
2019-04-06T16:42:57.009Z,26.30
2019-04-06T16:45:44.383Z,26.00
2019-04-06T16:48:33.319Z,25.70
2019-04-06T16:51:37.902Z,25.40
2019-04-06T16:54:24.600Z,25.10
2019-04-06T16:57:13.957Z,24.90
2019-04-06T17:00:17.016Z,24.90
2019-04-06T17:02:54.490Z,24.60
2019-04-06T17:05:30.850Z,24.40
2019-04-06T17:08:14.108Z,24.10
2019-04-06T17:10:58.010Z,23.70
2019-04-06T17:13:37.498Z,23.30
2019-04-06T17:19:28.041Z,22.90
2019-04-06T17:22:22.508Z,22.50
2019-04-06T17:25:08.662Z,22.10
2019-04-06T17:27:46.526Z,21.80
2019-04-06T17:30:40.943Z,21.50
2019-04-06T17:37:07.406Z,20.80
2019-04-06T17:39:42.862Z,20.50
2019-04-06T17:42:29.919Z,20.10
2019-04-06T17:45:17.073Z,19.80
2019-04-06T17:48:11.319Z,19.40
2019-04-06T17:50:59.325Z,19.10
2019-04-06T17:54:05.332Z,18.90
2019-04-06T17:56:40.243Z,18.70
2019-04-06T17:59:20.417Z,18.50
2019-04-06T18:02:08.607Z,18.20
2019-04-06T18:05:11.871Z,18.10
2019-04-06T18:07:53.441Z,18.00
2019-04-06T18:10:41.667Z,17.90
2019-04-06T18:13:16.996Z,17.80
2019-04-06T18:15:46.290Z,17.70
2019-04-06T18:18:15.577Z,17.60
2019-04-06T18:20:44.801Z,17.60
2019-04-06T18:23:14.158Z,17.50
2019-04-06T18:25:43.365Z,17.40
2019-04-06T18:28:12.164Z,17.30
2019-04-06T18:30:40.942Z,17.30
2019-04-06T18:33:13.767Z,17.10
2019-04-06T18:35:49.866Z,17.00
2019-04-06T18:38:32.979Z,16.90
2019-04-06T18:41:02.257Z,16.70
2019-04-06T18:43:33.250Z,16.60
2019-04-06T18:46:02.467Z,16.50
2019-04-06T18:48:31.622Z,16.40
2019-04-06T18:51:01.112Z,16.20
2019-04-06T18:53:30.435Z,16.10
2019-04-06T18:55:59.461Z,15.90
2019-04-06T18:58:31.182Z,15.80
2019-04-06T19:01:00.854Z,15.70
2019-04-06T19:03:32.277Z,15.60
2019-04-06T19:06:20.545Z,15.50
2019-04-06T19:08:50.243Z,15.40
2019-04-06T19:11:19.216Z,15.30
2019-04-06T19:13:48.138Z,15.30
2019-04-06T19:16:18.394Z,15.20
2019-04-06T19:18:47.774Z,15.20
2019-04-06T19:21:16.663Z,15.20
2019-04-06T19:23:45.794Z,15.10
2019-04-06T19:26:15.098Z,15.00
2019-04-06T19:28:43.998Z,14.90
2019-04-06T19:31:13.504Z,14.90
2019-04-06T19:33:43.150Z,14.80
2019-04-06T19:36:12.502Z,14.70
2019-04-06T19:38:41.404Z,14.60
2019-04-06T19:41:10.300Z,14.50
2019-04-06T19:43:39.999Z,14.40
2019-04-06T19:46:09.295Z,14.40
2019-04-06T19:48:40.558Z,14.40
2019-04-06T19:51:12.220Z,14.30
2019-04-06T19:53:41.256Z,14.20
2019-04-06T19:56:10.300Z,14.20
2019-04-06T19:58:41.496Z,14.10
2019-04-06T20:01:10.637Z,14.10
2019-04-06T20:03:40.163Z,13.90
2019-04-06T20:06:09.283Z,13.80
2019-04-06T20:08:38.790Z,13.70
2019-04-06T20:11:07.814Z,13.70
2019-04-06T20:13:37.734Z,13.70
2019-04-06T20:16:07.379Z,13.60
2019-04-06T20:18:36.978Z,13.60
2019-04-06T20:21:06.873Z,13.50
2019-04-06T20:23:35.619Z,13.50
2019-04-06T20:26:05.090Z,13.40
2019-04-06T20:28:34.119Z,13.40
2019-04-06T20:31:03.651Z,13.30
2019-04-06T20:33:32.858Z,13.20
2019-04-06T20:36:02.449Z,13.20
2019-04-06T20:38:31.585Z,13.10
2019-04-06T20:41:00.642Z,13.00
2019-04-06T20:43:30.159Z,13.00
2019-04-06T20:45:59.166Z,12.90
2019-04-06T20:48:28.324Z,12.80
2019-04-06T20:50:57.412Z,12.70
2019-04-06T20:53:26.243Z,12.70
2019-04-06T20:55:55.505Z,12.70
2019-04-06T20:58:25.979Z,12.70
2019-04-06T21:00:54.879Z,12.60
2019-04-06T21:03:24.318Z,12.60
2019-04-06T21:05:54.149Z,12.60
2019-04-06T21:08:24.085Z,12.60
2019-04-06T21:10:53.579Z,12.50
2019-04-06T21:13:23.519Z,12.40
2019-04-06T21:15:52.477Z,12.40
2019-04-06T21:18:22.194Z,12.40
2019-04-06T21:20:51.099Z,12.30
2019-04-06T21:23:21.863Z,12.20
2019-04-06T21:25:51.907Z,12.10
2019-04-06T21:28:20.903Z,12.00
2019-04-06T21:30:49.938Z,11.90
2019-04-06T21:33:19.007Z,11.90
2019-04-06T21:35:49.081Z,11.80
2019-04-06T21:38:21.884Z,11.80
2019-04-06T21:40:54.510Z,11.70
2019-04-06T21:43:28.923Z,11.60
2019-04-06T21:45:57.833Z,11.60
2019-04-06T21:48:27.594Z,11.50
2019-04-06T21:50:57.646Z,11.40
2019-04-06T21:53:27.672Z,11.40
2019-04-06T21:56:03.418Z,11.20
2019-04-06T21:58:29.071Z,11.20
2019-04-06T22:01:01.415Z,11.00
2019-04-06T22:03:30.296Z,11.00
2019-04-06T22:05:59.321Z,10.80
2019-04-06T22:08:28.333Z,10.80
2019-04-06T22:10:57.409Z,10.70
2019-04-06T22:13:27.037Z,10.70
2019-04-06T22:15:57.241Z,10.60
2019-04-06T22:18:26.334Z,10.60
2019-04-06T22:20:55.658Z,10.60
2019-04-06T22:23:25.242Z,10.50
2019-04-06T22:25:55.168Z,10.50
2019-04-06T22:28:24.537Z,10.40
2019-04-06T22:30:54.003Z,10.40
2019-04-06T22:33:42.719Z,10.40
2019-04-06T22:36:12.354Z,10.40
2019-04-06T22:38:41.625Z,10.30
2019-04-06T22:41:10.508Z,10.40
2019-04-06T22:43:41.172Z,10.50
2019-04-06T22:46:12.232Z,10.50
2019-04-06T22:48:40.734Z,10.50
2019-04-06T22:51:14.884Z,10.60
2019-04-06T22:53:44.182Z,10.60
2019-04-06T22:56:13.406Z,10.50
2019-04-06T22:58:42.518Z,10.50
2019-04-06T23:01:13.449Z,10.40
2019-04-06T23:04:13.555Z,10.40
2019-04-06T23:06:46.062Z,10.40
2019-04-06T23:09:52.055Z,10.40
2019-04-06T23:12:21.188Z,10.40
2019-04-06T23:14:50.285Z,10.30
2019-04-06T23:17:19.619Z,10.30
2019-04-06T23:19:48.513Z,10.30
2019-04-06T23:22:17.537Z,10.40
2019-04-06T23:24:46.883Z,10.40
2019-04-06T23:27:16.615Z,10.50
2019-04-06T23:29:45.408Z,10.60
2019-04-06T23:32:14.853Z,10.60
2019-04-06T23:34:44.746Z,10.70
2019-04-06T23:37:13.967Z,10.70
2019-04-06T23:39:43.065Z,10.70
2019-04-06T23:42:12.170Z,10.70
2019-04-06T23:44:40.953Z,10.70
2019-04-06T23:47:10.284Z,10.70
2019-04-06T23:49:52.515Z,10.70
2019-04-06T23:52:22.795Z,10.70
2019-04-06T23:54:57.603Z,10.60
2019-04-06T23:57:26.594Z,10.60
2019-04-06T23:59:55.713Z,10.60
